Terminal Aerodrome Forecast
Issued by NWS

Home | Current Version | Previous Version | Text Only | Print | Product List | Glossary On
Versions: 1 2 3 4 5 6 7 8 9 10 11 12 13
000
FTUS42 KTBW 201720
TAFRSW
TAF
KRSW 201720Z 2018/2118 07004KT P6SM VCSH SCT040
     FM202100 36005KT P6SM VCSH SCT040
     FM202200 02005KT P6SM VCSH BKN045
     FM210000 06005KT P6SM BKN035=

USA.gov is the U.S. government's official web portal to all federal, state and local government web resources and services.